CheckWX is a tool to help pilots better visualize weather data.  It is not intended as a substitute for an official pre-flight weather briefing.

21:35:58 UTC

KBRL TAF
Southeast Iowa Regional Airport
Burlington, Iowa, USA
KBRL 202122Z 2021/2118 25013G19KT P6SM BKN040 FM210100 26010KT P6SM SCT100 FM210400 29012G19KT P6SM BKN030 FM211400 32008KT P6SM SCT030 BKN050

Mar-20@
21:00 UTC

Mar-20 @ 21:00 UTC

Mar-21@
01:00 UTC

Mar-21 @ 01:00 UTC

KBRL 202122Z 2021/2118 25013G19KT P6SM BKN040
Wind
  • 250° at 13 KTS
  • {Gusting to 19 KTS
Cloud Levels
  • Broken at 4,000' AGL

Mar-21@
01:00 UTC

Mar-21 @ 01:00 UTC

Mar-21@
04:00 UTC

Mar-21 @ 04:00 UTC

FM210100 26010KT P6SM SCT100

From

From Standard forecast or significant change

Wind
  • 260° at 10 KTS
Cloud Levels
  • Scattered at 10,000' AGL

Mar-21@
04:00 UTC

Mar-21 @ 04:00 UTC

Mar-21@
14:00 UTC

Mar-21 @ 14:00 UTC

FM210400 29012G19KT P6SM BKN030

From

From Standard forecast or significant change

Wind
  • 290° at 12 KTS
  • {Gusting to 19 KTS
Cloud Levels
  • Broken at 3,000' AGL

Mar-21@
14:00 UTC

Mar-21 @ 14:00 UTC

Mar-21@
18:00 UTC

Mar-21 @ 18:00 UTC

FM211400 32008KT P6SM SCT030 BKN050

From

From Standard forecast or significant change

Wind
  • 320° at 8 KTS
Cloud Levels
  • Scattered at 3,000' AGL
  • Broken at 5,000' AGL